Time;durP1;ratioP1;P1;durP2;ratioP2;P2;SDS_P1;SDS_P2;PMS_P1;PMS_P2;Temp;Humidity;BMP_temperature;BMP_pressure;BME280_temperature;BME280_humidity;BME280_pressure;Samples;Min_cycle;Max_cycle;Signal;HPM_P1;HPM_P2
2023/10/26 00:00:29;;;;;;;;;;;12.50;89.30;;;;;;5091216;28;19923;-76
2023/10/26 00:02:55;;;;;;;;;;;12.50;88.70;;;;;;5109357;28;20299;-75
2023/10/26 00:05:20;;;;;;;;;;;12.60;88.70;;;;;;5109476;28;19912;-75
2023/10/26 00:07:46;;;;;;;;;;;12.60;88.70;;;;;;5109472;28;19936;-75
2023/10/26 00:10:12;;;;;;;;;;;12.70;88.60;;;;;;5109372;28;19911;-75
2023/10/26 00:12:37;;;;;;;;;;;12.70;88.50;;;;;;5109290;28;20269;-75
2023/10/26 00:15:03;;;;;;;;;;;12.70;88.50;;;;;;5109231;28;20616;-75
2023/10/26 00:17:29;;;;;;;;;;;12.70;88.40;;;;;;5109112;28;19916;-75
2023/10/26 00:19:54;;;;;;;;;;;12.70;88.40;;;;;;5109128;28;19919;-75
2023/10/26 00:22:20;;;;;;;;;;;12.70;88.40;;;;;;5109220;28;19953;-75
2023/10/26 00:24:46;;;;;;;;;;;12.70;88.90;;;;;;5109106;28;19908;-75
2023/10/26 00:27:12;;;;;;;;;;;12.70;88.40;;;;;;5109035;28;19914;-75
2023/10/26 00:29:38;;;;;;;;;;;12.60;88.40;;;;;;5108950;28;19911;-75
2023/10/26 00:32:05;;;;;;;;;;;12.60;88.40;;;;;;5108947;28;20265;-75
2023/10/26 00:34:30;;;;;;;;;;;12.50;88.20;;;;;;5108929;28;19907;-75
2023/10/26 00:36:56;;;;;;;;;;;12.40;88.10;;;;;;5108922;28;19916;-75
2023/10/26 00:39:21;;;;;;;;;;;12.30;88.10;;;;;;5090702;28;20274;-76
2023/10/26 00:41:50;;;;;;;;;;;12.30;88.20;;;;;;5109046;28;19957;-75
2023/10/26 00:44:16;;;;;;;;;;;12.20;88.30;;;;;;5108816;28;19907;-75
2023/10/26 00:46:41;;;;;;;;;;;12.20;88.40;;;;;;5108913;28;19912;-75
2023/10/26 00:49:10;;;;;;;;;;;12.30;88.50;;;;;;5108662;28;20376;-75
2023/10/26 00:51:35;;;;;;;;;;;12.30;88.50;;;;;;5108650;28;19916;-75
2023/10/26 00:54:02;;;;;;;;;;;12.30;88.50;;;;;;5108473;28;19965;-75
2023/10/26 00:56:28;;;;;;;;;;;12.40;88.60;;;;;;5108723;28;20395;-75
2023/10/26 00:58:55;;;;;;;;;;;12.40;88.50;;;;;;5109106;28;19927;-75
2023/10/26 01:01:21;;;;;;;;;;;12.30;88.30;;;;;;5108528;28;19912;-75
2023/10/26 01:03:47;;;;;;;;;;;12.30;88.40;;;;;;5108529;28;19984;-75
2023/10/26 01:06:12;;;;;;;;;;;12.30;88.50;;;;;;5108884;28;19915;-75
2023/10/26 01:08:38;;;;;;;;;;;12.30;88.60;;;;;;5108753;28;20002;-75
2023/10/26 01:11:04;;;;;;;;;;;12.30;88.60;;;;;;5108724;28;20402;-75
2023/10/26 01:13:30;;;;;;;;;;;12.30;88.60;;;;;;5108488;28;19912;-75
2023/10/26 01:15:56;;;;;;;;;;;12.40;88.50;;;;;;5108672;28;20294;-75
2023/10/26 01:18:21;;;;;;;;;;;12.40;88.40;;;;;;5090260;28;20292;-75
2023/10/26 01:20:47;;;;;;;;;;;12.30;88.20;;;;;;5108835;28;19920;-75
2023/10/26 01:23:13;;;;;;;;;;;12.30;88.10;;;;;;5108606;28;20382;-75
2023/10/26 01:25:39;;;;;;;;;;;12.20;88.00;;;;;;5108208;28;20339;-75
2023/10/26 01:28:06;;;;;;;;;;;12.10;88.00;;;;;;5108518;28;19919;-75
2023/10/26 01:30:32;;;;;;;;;;;12.00;88.10;;;;;;5108403;28;19923;-75
2023/10/26 01:32:58;;;;;;;;;;;12.00;88.30;;;;;;5108571;28;19919;-75
2023/10/26 01:35:24;;;;;;;;;;;11.90;88.40;;;;;;5108450;28;20295;-75
2023/10/26 01:37:49;;;;;;;;;;;12.00;88.50;;;;;;5108441;28;19928;-75
2023/10/26 01:40:15;;;;;;;;;;;12.00;88.60;;;;;;5108290;28;19955;-75
2023/10/26 01:42:40;;;;;;;;;;;12.10;88.60;;;;;;5108477;28;20372;-75
2023/10/26 01:45:06;;;;;;;;;;;12.10;88.50;;;;;;5089794;28;19966;-75
2023/10/26 01:47:32;;;;;;;;;;;12.10;88.50;;;;;;5108279;28;19916;-75
2023/10/26 01:49:59;;;;;;;;;;;12.10;88.50;;;;;;5089893;28;20411;-75
2023/10/26 01:52:24;;;;;;;;;;;12.10;88.50;;;;;;5108139;28;19960;-75
2023/10/26 01:54:50;;;;;;;;;;;12.10;88.40;;;;;;5108200;28;20278;-75
2023/10/26 01:57:16;;;;;;;;;;;12.10;88.20;;;;;;5108066;28;19915;-75
2023/10/26 01:59:42;;;;;;;;;;;12.00;88.00;;;;;;5090038;28;20004;-75
2023/10/26 02:02:07;;;;;;;;;;;12.00;88.00;;;;;;5111603;28;20394;-75
2023/10/26 02:04:33;;;;;;;;;;;11.80;87.90;;;;;;5093335;28;19931;-75
2023/10/26 02:06:58;;;;;;;;;;;11.70;88.00;;;;;;5093595;28;19918;-75
2023/10/26 02:09:24;;;;;;;;;;;11.60;88.20;;;;;;5111776;28;20326;-75
2023/10/26 02:11:49;;;;;;;;;;;11.50;88.20;;;;;;5111716;28;19920;-75
2023/10/26 02:14:15;;;;;;;;;;;11.40;88.30;;;;;;5111546;28;19915;-75
2023/10/26 02:16:41;;;;;;;;;;;11.30;88.30;;;;;;5111660;28;19912;-75
2023/10/26 02:19:07;;;;;;;;;;;11.30;88.40;;;;;;5111658;28;19911;-75
2023/10/26 02:21:34;;;;;;;;;;;11.20;88.50;;;;;;5111666;28;20275;-74
2023/10/26 02:23:59;;;;;;;;;;;11.20;88.50;;;;;;5111474;28;19922;-75
2023/10/26 02:26:25;;;;;;;;;;;11.20;88.50;;;;;;5111492;28;19911;-74
2023/10/26 02:28:51;;;;;;;;;;;11.20;88.50;;;;;;5093244;28;19923;-74
2023/10/26 02:31:16;;;;;;;;;;;11.20;88.40;;;;;;5111444;28;19978;-75
2023/10/26 02:33:42;;;;;;;;;;;11.10;88.40;;;;;;5111337;28;19912;-75
2023/10/26 02:36:08;;;;;;;;;;;11.10;88.40;;;;;;5111215;28;19919;-74
2023/10/26 02:38:33;;;;;;;;;;;11.10;88.40;;;;;;5111267;28;20298;-75
2023/10/26 02:41:03;;;;;;;;;;;11.10;88.30;;;;;;5111751;28;19915;-74
2023/10/26 02:43:28;;;;;;;;;;;11.10;88.30;;;;;;5111256;28;20279;-74
2023/10/26 02:46:06;;;;;;;;;;;11.10;88.30;;;;;;5111009;28;19911;-74
2023/10/26 02:48:32;;;;;;;;;;;11.10;88.40;;;;;;5111018;28;19915;-74
2023/10/26 02:50:58;;;;;;;;;;;11.10;88.40;;;;;;5111302;28;19912;-74
2023/10/26 02:53:24;;;;;;;;;;;11.00;88.30;;;;;;5111177;28;19918;-74
2023/10/26 02:55:49;;;;;;;;;;;11.10;88.40;;;;;;5110786;28;19912;-75
2023/10/26 02:58:15;;;;;;;;;;;11.10;88.30;;;;;;5110655;28;20423;-74
2023/10/26 03:00:40;;;;;;;;;;;11.00;88.20;;;;;;5110744;28;19919;-74
2023/10/26 03:03:06;;;;;;;;;;;11.00;88.20;;;;;;5110602;28;19912;-74
2023/10/26 03:05:33;;;;;;;;;;;10.90;88.10;;;;;;5092526;28;19970;-74
2023/10/26 03:07:59;;;;;;;;;;;10.80;88.10;;;;;;5110638;28;20006;-75
2023/10/26 03:10:24;;;;;;;;;;;10.70;88.10;;;;;;5110614;28;20002;-74
2023/10/26 03:12:50;;;;;;;;;;;10.60;88.20;;;;;;5110516;28;19965;-75
2023/10/26 03:15:16;;;;;;;;;;;10.50;88.30;;;;;;5110429;28;19920;-74
2023/10/26 03:17:42;;;;;;;;;;;10.40;88.30;;;;;;5110613;28;20386;-74
2023/10/26 03:20:08;;;;;;;;;;;10.40;88.40;;;;;;5110444;28;20002;-74
2023/10/26 03:22:34;;;;;;;;;;;10.30;88.40;;;;;;5110519;28;19958;-74
2023/10/26 03:25:00;;;;;;;;;;;10.30;88.40;;;;;;5110300;28;20332;-74
2023/10/26 03:27:25;;;;;;;;;;;10.20;88.30;;;;;;5110251;28;19918;-74
2023/10/26 03:29:51;;;;;;;;;;;10.10;88.30;;;;;;5110360;28;19912;-75
2023/10/26 03:32:16;;;;;;;;;;;10.10;88.30;;;;;;5092075;28;19919;-74
2023/10/26 03:34:42;;;;;;;;;;;10.00;88.40;;;;;;5110072;28;19918;-74
2023/10/26 03:37:08;;;;;;;;;;;10.00;88.40;;;;;;5109907;28;19920;-74
2023/10/26 03:39:34;;;;;;;;;;;10.00;88.50;;;;;;5110006;28;20299;-74
2023/10/26 03:42:00;;;;;;;;;;;10.00;88.40;;;;;;5109836;28;19908;-74
2023/10/26 03:44:25;;;;;;;;;;;10.00;88.40;;;;;;5109814;28;19915;-75
2023/10/26 03:46:52;;;;;;;;;;;10.10;88.40;;;;;;5109712;28;19911;-75
2023/10/26 03:49:18;;;;;;;;;;;10.10;88.40;;;;;;5109893;28;20279;-74
2023/10/26 03:51:44;;;;;;;;;;;10.20;88.30;;;;;;5091636;28;19920;-74
2023/10/26 03:54:10;;;;;;;;;;;10.20;88.30;;;;;;5109511;28;19918;-74
2023/10/26 03:56:36;;;;;;;;;;;10.20;88.20;;;;;;5109659;28;19998;-74
2023/10/26 03:59:02;;;;;;;;;;;10.20;88.30;;;;;;5109571;28;20328;-74
2023/10/26 04:01:28;;;;;;;;;;;10.20;88.30;;;;;;5109625;28;20345;-74
2023/10/26 04:03:53;;;;;;;;;;;10.30;88.40;;;;;;5109300;28;19961;-74
2023/10/26 04:06:19;;;;;;;;;;;10.30;88.40;;;;;;5109334;28;20088;-76
2023/10/26 04:08:44;;;;;;;;;;;10.40;88.30;;;;;;5113227;28;19947;-74
2023/10/26 04:11:17;;;;;;;;;;;10.40;88.20;;;;;;5109140;28;20209;-76
2023/10/26 04:13:42;;;;;;;;;;;10.40;88.20;;;;;;5091103;28;19912;-73
2023/10/26 04:16:08;;;;;;;;;;;10.40;88.20;;;;;;5109644;28;19993;-73
2023/10/26 04:18:34;;;;;;;;;;;10.50;88.30;;;;;;5109226;28;19920;-73
2023/10/26 04:20:59;;;;;;;;;;;10.50;88.30;;;;;;5109284;28;19908;-73
2023/10/26 04:23:26;;;;;;;;;;;10.60;88.20;;;;;;5108809;28;19931;-73
2023/10/26 04:25:52;;;;;;;;;;;10.50;88.10;;;;;;5109197;28;19908;-74
2023/10/26 04:28:18;;;;;;;;;;;10.50;88.20;;;;;;5109464;28;19918;-74
2023/10/26 04:30:44;;;;;;;;;;;10.50;88.20;;;;;;5109217;28;19912;-73
2023/10/26 04:33:09;;;;;;;;;;;10.50;88.10;;;;;;5109146;28;19912;-73
2023/10/26 04:35:39;;;;;;;;;;;10.40;88.00;;;;;;5108823;28;20052;-73
2023/10/26 04:38:05;;;;;;;;;;;10.40;87.90;;;;;;5108810;28;19984;-74
2023/10/26 04:40:30;;;;;;;;;;;10.40;87.90;;;;;;5090502;28;20431;-74
2023/10/26 04:42:56;;;;;;;;;;;10.40;87.90;;;;;;5108994;28;19928;-74
2023/10/26 04:45:21;;;;;;;;;;;10.40;88.00;;;;;;5108764;28;20032;-74
2023/10/26 04:47:47;;;;;;;;;;;10.30;88.00;;;;;;5108839;28;19919;-74
2023/10/26 04:50:12;;;;;;;;;;;10.30;88.10;;;;;;5090624;28;19919;-73
2023/10/26 04:52:38;;;;;;;;;;;10.20;88.10;;;;;;5108893;28;19923;-73
2023/10/26 04:55:04;;;;;;;;;;;10.20;88.10;;;;;;5108698;28;20328;-73
2023/10/26 04:57:29;;;;;;;;;;;10.20;88.20;;;;;;5108537;28;19938;-73
2023/10/26 04:59:55;;;;;;;;;;;10.20;88.10;;;;;;5108512;28;19918;-73
2023/10/26 05:02:20;;;;;;;;;;;10.20;88.00;;;;;;5108707;28;19912;-74
2023/10/26 05:04:46;;;;;;;;;;;10.20;88.00;;;;;;5090224;28;20299;-73
2023/10/26 05:07:11;;;;;;;;;;;10.20;88.00;;;;;;5108344;28;19916;-73
2023/10/26 05:09:37;;;;;;;;;;;10.20;88.20;;;;;;5108539;28;19912;-73
2023/10/26 05:12:03;;;;;;;;;;;10.20;88.30;;;;;;5108589;28;20275;-73
2023/10/26 05:14:28;;;;;;;;;;;10.20;88.30;;;;;;5108411;28;19924;-73
2023/10/26 05:16:54;;;;;;;;;;;10.20;88.30;;;;;;5108360;28;20364;-73
2023/10/26 05:19:19;;;;;;;;;;;10.20;88.40;;;;;;5108582;28;20457;-73
2023/10/26 05:21:45;;;;;;;;;;;10.30;88.50;;;;;;5090023;28;19912;-74
2023/10/26 05:24:10;;;;;;;;;;;10.40;88.40;;;;;;5090327;28;19908;-74
2023/10/26 05:26:36;;;;;;;;;;;10.50;88.40;;;;;;5108410;28;20440;-73
2023/10/26 05:29:03;;;;;;;;;;;10.50;88.30;;;;;;5108393;28;19912;-73
2023/10/26 05:31:29;;;;;;;;;;;10.60;88.30;;;;;;5108292;28;19915;-73
2023/10/26 05:33:54;;;;;;;;;;;10.70;88.30;;;;;;5108224;28;19912;-74
2023/10/26 05:36:20;;;;;;;;;;;10.70;88.20;;;;;;5110731;28;19959;-74
2023/10/26 05:38:45;;;;;;;;;;;10.80;88.70;;;;;;5093596;28;19915;-73
2023/10/26 05:41:11;;;;;;;;;;;10.80;88.40;;;;;;5112180;28;19923;-74
2023/10/26 05:43:37;;;;;;;;;;;10.90;88.40;;;;;;5112156;28;19918;-74
2023/10/26 05:46:04;;;;;;;;;;;10.90;88.30;;;;;;5111844;28;19923;-73
2023/10/26 05:48:31;;;;;;;;;;;11.00;88.40;;;;;;5111997;28;19908;-74
2023/10/26 05:50:57;;;;;;;;;;;11.00;88.30;;;;;;5111809;28;19986;-74
2023/10/26 05:53:22;;;;;;;;;;;11.00;88.20;;;;;;5112095;28;20011;-74
2023/10/26 05:55:58;;;;;;;;;;;11.00;88.20;;;;;;5111715;28;19918;-73
2023/10/26 05:58:24;;;;;;;;;;;11.00;88.20;;;;;;5111427;28;19985;-74
2023/10/26 06:00:50;;;;;;;;;;;11.00;88.30;;;;;;5111516;28;19907;-73
2023/10/26 06:03:15;;;;;;;;;;;11.00;88.30;;;;;;5111368;28;20383;-74
2023/10/26 06:05:41;;;;;;;;;;;11.00;88.40;;;;;;5093418;28;19947;-74
2023/10/26 06:08:06;;;;;;;;;;;11.00;88.40;;;;;;5111722;28;19944;-73
2023/10/26 06:10:32;;;;;;;;;;;11.00;88.40;;;;;;5111436;28;19919;-74
2023/10/26 06:12:57;;;;;;;;;;;11.00;88.40;;;;;;5111599;28;20346;-74
2023/10/26 06:15:23;;;;;;;;;;;11.00;88.40;;;;;;5111475;28;19920;-74
2023/10/26 06:17:50;;;;;;;;;;;11.00;88.30;;;;;;5111345;28;19968;-74
2023/10/26 06:20:16;;;;;;;;;;;11.00;88.20;;;;;;5111458;28;19911;-74
2023/10/26 06:22:42;;;;;;;;;;;11.00;88.10;;;;;;5111344;28;20468;-74
2023/10/26 06:25:08;;;;;;;;;;;11.00;88.00;;;;;;5111269;28;19990;-74
2023/10/26 06:27:33;;;;;;;;;;;11.00;88.00;;;;;;5111246;28;20386;-74
2023/10/26 06:29:59;;;;;;;;;;;10.90;88.00;;;;;;5110892;28;20356;-75
2023/10/26 06:32:24;;;;;;;;;;;10.90;88.00;;;;;;5111093;28;19980;-74
2023/10/26 06:34:50;;;;;;;;;;;10.80;88.00;;;;;;5110884;28;19912;-74
2023/10/26 06:37:16;;;;;;;;;;;10.80;88.20;;;;;;5110774;28;20372;-74
2023/10/26 06:39:42;;;;;;;;;;;10.70;88.10;;;;;;5092323;28;19912;-75
2023/10/26 06:42:07;;;;;;;;;;;10.60;88.00;;;;;;5110728;28;19922;-75
2023/10/26 06:44:33;;;;;;;;;;;10.50;88.10;;;;;;5111017;28;19916;-74
2023/10/26 06:46:59;;;;;;;;;;;10.50;88.10;;;;;;5110513;28;20006;-75
2023/10/26 06:49:24;;;;;;;;;;;10.40;88.00;;;;;;5092473;28;20377;-74
2023/10/26 06:51:50;;;;;;;;;;;10.40;88.10;;;;;;5110572;28;19912;-75
2023/10/26 06:54:16;;;;;;;;;;;10.30;88.40;;;;;;5110537;28;19915;-74
2023/10/26 06:56:42;;;;;;;;;;;10.30;88.00;;;;;;5110325;28;19958;-69
2023/10/26 06:59:07;;;;;;;;;;;10.20;88.00;;;;;;5109904;28;19915;-74
2023/10/26 07:01:33;;;;;;;;;;;10.20;88.00;;;;;;5091805;28;19912;-74
2023/10/26 07:03:59;;;;;;;;;;;10.20;88.00;;;;;;5110074;28;19931;-74
2023/10/26 07:06:25;;;;;;;;;;;10.20;88.00;;;;;;5092006;28;19913;-76
2023/10/26 07:08:51;;;;;;;;;;;10.20;88.10;;;;;;5092732;28;19911;-75
2023/10/26 07:11:16;;;;;;;;;;;10.10;88.10;;;;;;5109875;28;19939;-75
2023/10/26 07:13:44;;;;;;;;;;;10.20;88.20;;;;;;5109707;28;19938;-72
2023/10/26 07:16:09;;;;;;;;;;;10.20;88.20;;;;;;5109180;28;19907;-74
2023/10/26 07:18:35;;;;;;;;;;;10.20;88.10;;;;;;5109519;28;20325;-70
2023/10/26 07:21:07;;;;;;;;;;;10.20;88.10;;;;;;5109518;28;19912;-74
2023/10/26 07:23:33;;;;;;;;;;;10.20;88.20;;;;;;5109737;28;19998;-71
2023/10/26 07:25:59;;;;;;;;;;;10.20;88.20;;;;;;5091288;28;19958;-75
2023/10/26 07:28:24;;;;;;;;;;;10.20;88.20;;;;;;5109446;28;19955;-75
2023/10/26 07:30:52;;;;;;;;;;;10.20;88.30;;;;;;5109316;28;19947;-75
2023/10/26 07:33:19;;;;;;;;;;;10.30;88.30;;;;;;5109425;28;20352;-75
2023/10/26 07:35:50;;;;;;;;;;;10.30;88.20;;;;;;5108865;28;19920;-75
2023/10/26 07:38:16;;;;;;;;;;;10.40;88.20;;;;;;5109267;28;19916;-74
2023/10/26 07:41:03;;;;;;;;;;;10.50;88.20;;;;;;5109336;28;19961;-75
2023/10/26 07:43:29;;;;;;;;;;;10.60;88.20;;;;;;5110808;28;19999;-76
2023/10/26 07:45:55;;;;;;;;;;;10.60;88.20;;;;;;5109230;28;20014;-76
2023/10/26 07:48:21;;;;;;;;;;;10.70;88.20;;;;;;5109381;28;19994;-75
2023/10/26 07:50:46;;;;;;;;;;;10.80;88.20;;;;;;5108893;28;20279;-76
2023/10/26 07:53:14;;;;;;;;;;;10.80;88.10;;;;;;5090194;28;20268;-75
2023/10/26 07:55:39;;;;;;;;;;;10.90;88.10;;;;;;5109268;28;19947;-71
2023/10/26 07:58:05;;;;;;;;;;;10.90;88.00;;;;;;5108042;28;19984;-75
2023/10/26 08:00:30;;;;;;;;;;;10.90;88.00;;;;;;5108655;28;19912;-74
2023/10/26 08:02:57;;;;;;;;;;;10.90;88.00;;;;;;5108578;28;19912;-75
2023/10/26 08:05:23;;;;;;;;;;;11.00;88.10;;;;;;5108909;28;20321;-75
2023/10/26 08:07:48;;;;;;;;;;;11.00;88.20;;;;;;5110150;28;19912;-75
2023/10/26 08:10:14;;;;;;;;;;;11.10;88.30;;;;;;5109672;28;19912;-74
2023/10/26 08:12:39;;;;;;;;;;;11.10;88.30;;;;;;5109987;28;19943;-73
2023/10/26 08:15:05;;;;;;;;;;;11.20;88.40;;;;;;5110165;28;20014;-75
2023/10/26 08:17:37;;;;;;;;;;;11.30;88.60;;;;;;5109773;28;19923;-75
2023/10/26 08:20:06;;;;;;;;;;;11.50;88.70;;;;;;5110006;28;19915;-76
2023/10/26 08:22:32;;;;;;;;;;;11.50;88.60;;;;;;5091095;28;20272;-75
2023/10/26 08:24:59;;;;;;;;;;;11.60;88.60;;;;;;5091658;28;19912;-75
2023/10/26 08:27:24;;;;;;;;;;;11.70;88.60;;;;;;5109572;28;19951;-74
2023/10/26 08:29:50;;;;;;;;;;;11.70;88.60;;;;;;5109985;28;19963;-75
2023/10/26 08:32:16;;;;;;;;;;;11.70;88.60;;;;;;5109897;28;19918;-75
2023/10/26 08:34:44;;;;;;;;;;;11.80;88.70;;;;;;5110103;28;19908;-75
2023/10/26 08:37:10;;;;;;;;;;;11.90;88.80;;;;;;5110140;28;19912;-75
2023/10/26 08:39:36;;;;;;;;;;;12.00;88.80;;;;;;5109618;28;20003;-79
2023/10/26 08:42:01;;;;;;;;;;;12.00;88.80;;;;;;5110015;28;20003;-78
2023/10/26 08:44:31;;;;;;;;;;;12.10;88.70;;;;;;5110044;28;19947;-78
2023/10/26 08:47:02;;;;;;;;;;;12.00;88.50;;;;;;5074557;28;19990;-77
2023/10/26 08:49:28;;;;;;;;;;;11.90;88.60;;;;;;5109389;28;19945;-78
2023/10/26 08:51:54;;;;;;;;;;;11.90;88.70;;;;;;5109326;28;20014;-77
2023/10/26 08:54:20;;;;;;;;;;;11.90;88.60;;;;;;5091501;28;19916;-78
2023/10/26 08:56:45;;;;;;;;;;;11.80;88.70;;;;;;5091373;28;19948;-78
2023/10/26 08:59:11;;;;;;;;;;;11.70;88.70;;;;;;5090852;28;20271;-76
2023/10/26 09:01:37;;;;;;;;;;;11.70;88.80;;;;;;5091321;28;19912;-77
2023/10/26 09:04:09;;;;;;;;;;;11.70;89.00;;;;;;5091217;28;19930;-77
2023/10/26 09:06:44;;;;;;;;;;;11.60;89.10;;;;;;5109667;28;19951;-77
2023/10/26 09:09:09;;;;;;;;;;;11.60;89.10;;;;;;5110342;28;19908;-77
2023/10/26 09:11:35;;;;;;;;;;;11.60;89.30;;;;;;5117105;28;19907;-77
2023/10/26 09:14:16;;;;;;;;;;;11.90;90.10;;;;;;5105638;28;19912;-77
2023/10/26 09:16:44;;;;;;;;;;;12.60;90.80;;;;;;5104376;28;19945;-78
2023/10/26 09:19:11;;;;;;;;;;;13.90;91.50;;;;;;5116728;28;19919;-77
2023/10/26 09:21:50;;;;;;;;;;;15.30;91.60;;;;;;5116409;28;20437;-77
2023/10/26 09:24:26;;;;;;;;;;;16.20;90.80;;;;;;5097850;28;19939;-76
2023/10/26 09:26:52;;;;;;;;;;;16.30;90.20;;;;;;5116135;28;19969;-77
2023/10/26 09:29:19;;;;;;;;;;;16.60;90.60;;;;;;5115849;28;19942;-76
2023/10/26 09:31:52;;;;;;;;;;;17.20;91.00;;;;;;5116010;28;19919;-77
2023/10/26 09:34:18;;;;;;;;;;;18.00;91.30;;;;;;5097444;28;19923;-77
2023/10/26 09:36:57;;;;;;;;;;;18.90;91.40;;;;;;5116222;28;19912;-77
2023/10/26 09:39:23;;;;;;;;;;;19.80;91.60;;;;;;5097679;28;19991;-77
2023/10/26 09:41:49;;;;;;;;;;;20.50;91.20;;;;;;5097285;28;19976;-76
2023/10/26 09:44:15;;;;;;;;;;;20.90;91.00;;;;;;5115160;28;19915;-76
2023/10/26 09:46:41;;;;;;;;;;;21.20;91.20;;;;;;5114528;28;20352;-77
2023/10/26 09:49:07;;;;;;;;;;;21.70;91.40;;;;;;5097851;28;20282;-77
2023/10/26 09:51:33;;;;;;;;;;;22.10;91.30;;;;;;5116209;28;19938;-75
2023/10/26 09:53:59;;;;;;;;;;;22.30;91.10;;;;;;5115817;28;19911;-75
2023/10/26 09:56:27;;;;;;;;;;;22.50;91.30;;;;;;5097647;28;19998;-75
2023/10/26 09:58:53;;;;;;;;;;;23.10;91.70;;;;;;5115505;28;20337;-77
2023/10/26 10:01:39;;;;;;;;;;;23.60;91.50;;;;;;5115106;28;19912;-77
2023/10/26 10:04:05;;;;;;;;;;;23.90;91.30;;;;;;5115103;28;20299;-74
2023/10/26 10:06:44;;;;;;;;;;;24.10;91.30;;;;;;5115284;28;19908;-76
2023/10/26 10:09:10;;;;;;;;;;;24.30;91.30;;;;;;5115772;28;19915;-76
2023/10/26 10:11:36;;;;;;;;;;;24.30;91.10;;;;;;5116031;28;20002;-77
2023/10/26 10:14:02;;;;;;;;;;;24.40;91.50;;;;;;5097596;28;19999;-75
2023/10/26 10:16:33;;;;;;;;;;;24.90;91.90;;;;;;5115760;28;19919;-66
2023/10/26 10:19:18;;;;;;;;;;;25.40;91.80;;;;;;5115543;28;19911;-77
2023/10/26 10:21:44;;;;;;;;;;;25.70;91.40;;;;;;5112343;28;20086;-75
2023/10/26 10:24:09;;;;;;;;;;;25.50;91.40;;;;;;5093589;28;20327;-76
2023/10/26 10:26:54;;;;;;;;;;;25.70;91.70;;;;;;5093795;28;19965;-79
2023/10/26 10:29:21;;;;;;;;;;;26.10;92.00;;;;;;5093996;28;19930;-76
2023/10/26 10:31:49;;;;;;;;;;;26.60;91.80;;;;;;5112819;28;19934;-73
2023/10/26 10:34:18;;;;;;;;;;;26.60;91.70;;;;;;5111410;28;20307;-72
2023/10/26 10:37:03;;;;;;;;;;;26.70;91.70;;;;;;5092712;28;19912;-70
2023/10/26 10:39:28;;;;;;;;;;;26.70;91.70;;;;;;5111361;28;19915;-74
2023/10/26 10:41:54;;;;;;;;;;;27.00;92.00;;;;;;5092588;28;20401;-72
2023/10/26 10:44:20;;;;;;;;;;;27.30;91.90;;;;;;5110735;28;19912;-72
2023/10/26 10:46:47;;;;;;;;;;;27.50;91.80;;;;;;5110468;28;20006;-71
2023/10/26 10:49:14;;;;;;;;;;;27.50;91.70;;;;;;5110533;28;20422;-72
2023/10/26 10:51:41;;;;;;;;;;;27.50;91.50;;;;;;5110976;28;19911;-73
2023/10/26 10:54:07;;;;;;;;;;;27.20;91.60;;;;;;5110798;28;19916;-75
2023/10/26 10:56:37;;;;;;;;;;;27.30;92.20;;;;;;5111010;28;20113;-75
2023/10/26 10:59:30;;;;;;;;;;;27.40;91.70;;;;;;5110647;28;19911;-76
2023/10/26 11:02:25;;;;;;;;;;;27.00;91.50;;;;;;5108311;28;20297;-74
2023/10/26 11:04:55;;;;;;;;;;;26.90;91.90;;;;;;5076069;28;20006;-72
2023/10/26 11:07:25;;;;;;;;;;;27.40;92.10;;;;;;5091532;28;19911;-73
2023/10/26 11:09:54;;;;;;;;;;;27.50;91.60;;;;;;5110302;28;20002;-74
2023/10/26 11:12:20;;;;;;;;;;;27.00;90.80;;;;;;5109500;28;19956;-74
2023/10/26 11:14:49;;;;;;;;;;;26.30;90.60;;;;;;5093188;28;19916;-75
2023/10/26 11:17:16;;;;;;;;;;;25.80;90.90;;;;;;5102319;28;20424;-75
2023/10/26 11:19:41;;;;;;;;;;;25.30;90.80;;;;;;5090009;28;19919;-76
2023/10/26 11:22:07;;;;;;;;;;;24.80;90.80;;;;;;5089308;28;19913;-71
2023/10/26 11:24:33;;;;;;;;;;;24.20;90.70;;;;;;5070673;28;19998;-67
2023/10/26 11:27:25;;;;;;;;;;;23.60;90.50;;;;;;5088402;28;20375;-66
2023/10/26 11:30:01;;;;;;;;;;;23.10;90.60;;;;;;5085145;28;20356;-67
2023/10/26 11:32:28;;;;;;;;;;;22.50;90.70;;;;;;5087946;28;20003;-75
2023/10/26 11:35:10;;;;;;;;;;;22.10;90.80;;;;;;5089529;28;19924;-78
2023/10/26 11:37:37;;;;;;;;;;;21.70;91.00;;;;;;5090284;28;20036;-79
2023/10/26 11:40:04;;;;;;;;;;;21.30;91.10;;;;;;5072060;28;20004;-76
2023/10/26 11:42:48;;;;;;;;;;;21.00;91.20;;;;;;5072337;28;19995;-76
2023/10/26 11:45:18;;;;;;;;;;;20.90;91.30;;;;;;5071549;28;19923;-74
2023/10/26 11:47:57;;;;;;;;;;;20.90;91.30;;;;;;5089556;28;19916;-70
2023/10/26 11:50:29;;;;;;;;;;;21.10;91.60;;;;;;5089425;28;19930;-71
2023/10/26 11:53:02;;;;;;;;;;;21.40;91.70;;;;;;5089976;28;20237;-71
2023/10/26 11:55:29;;;;;;;;;;;21.80;91.90;;;;;;5089429;28;19908;-71
2023/10/26 11:57:57;;;;;;;;;;;22.50;92.20;;;;;;5071741;28;19912;-76
2023/10/26 12:00:23;;;;;;;;;;;23.00;91.90;;;;;;5090044;28;20411;-76
2023/10/26 12:02:50;;;;;;;;;;;23.10;91.30;;;;;;5071243;28;19908;-74
2023/10/26 12:05:16;;;;;;;;;;;22.50;90.80;;;;;;5089545;28;19920;-75
2023/10/26 12:07:43;;;;;;;;;;;22.00;90.80;;;;;;5090217;28;19962;-77
2023/10/26 12:10:09;;;;;;;;;;;22.00;91.60;;;;;;5089076;28;19915;-76
2023/10/26 12:12:34;;;;;;;;;;;22.60;92.40;;;;;;5089721;28;19920;-75
2023/10/26 12:15:00;;;;;;;;;;;23.70;92.50;;;;;;5089894;28;19963;-76
2023/10/26 12:17:26;;;;;;;;;;;24.50;91.90;;;;;;5088375;28;19962;-74
2023/10/26 12:19:51;;;;;;;;;;;24.80;91.30;;;;;;5088687;28;19953;-74
2023/10/26 12:22:17;;;;;;;;;;;24.80;90.90;;;;;;5088663;28;19918;-77
2023/10/26 12:24:43;;;;;;;;;;;24.10;90.10;;;;;;5090608;28;19951;-75
2023/10/26 12:27:08;;;;;;;;;;;23.50;90.30;;;;;;5109027;28;19951;-75
2023/10/26 12:29:34;;;;;;;;;;;23.30;91.10;;;;;;5108606;28;19918;-76
2023/10/26 12:31:59;;;;;;;;;;;23.30;91.20;;;;;;5073523;28;20327;-77
2023/10/26 12:34:25;;;;;;;;;;;23.00;90.90;;;;;;5108646;28;19918;-76
2023/10/26 12:36:50;;;;;;;;;;;22.60;90.70;;;;;;5109070;28;20091;-75
2023/10/26 12:39:16;;;;;;;;;;;22.20;90.70;;;;;;5109540;28;20434;-66
2023/10/26 12:41:42;;;;;;;;;;;21.90;91.00;;;;;;5109190;28;19956;-75
2023/10/26 12:44:07;;;;;;;;;;;21.90;91.00;;;;;;5108630;28;19919;-77
2023/10/26 12:46:33;;;;;;;;;;;21.70;90.50;;;;;;5090866;28;20023;-75
2023/10/26 12:48:59;;;;;;;;;;;21.50;90.60;;;;;;5091196;28;19961;-77
2023/10/26 12:51:24;;;;;;;;;;;21.30;90.50;;;;;;5109256;28;19931;-77
2023/10/26 12:53:50;;;;;;;;;;;21.20;90.60;;;;;;5091235;28;19914;-76
2023/10/26 12:56:15;;;;;;;;;;;21.20;90.70;;;;;;5109488;28;20002;-76
2023/10/26 12:58:41;;;;;;;;;;;21.10;90.30;;;;;;5109352;28;19939;-76
2023/10/26 13:01:07;;;;;;;;;;;20.70;90.10;;;;;;5109480;28;19957;-77
2023/10/26 13:03:33;;;;;;;;;;;20.30;90.20;;;;;;5109370;28;19920;-75
2023/10/26 13:05:58;;;;;;;;;;;20.10;90.40;;;;;;5107821;28;19925;-76
2023/10/26 13:08:24;;;;;;;;;;;20.10;90.70;;;;;;5108416;28;20317;-83
2023/10/26 13:10:50;;;;;;;;;;;20.20;90.80;;;;;;5110953;28;19971;-84
2023/10/26 13:13:15;;;;;;;;;;;20.20;90.60;;;;;;5092016;28;20010;-75
2023/10/26 13:15:41;;;;;;;;;;;20.00;90.40;;;;;;5110202;28;19999;-78
2023/10/26 13:18:07;;;;;;;;;;;19.80;90.60;;;;;;5109073;28;20330;-76
2023/10/26 13:20:33;;;;;;;;;;;19.80;91.10;;;;;;5090883;28;19912;-76
2023/10/26 13:22:59;;;;;;;;;;;20.10;91.20;;;;;;5109422;28;19960;-74
2023/10/26 13:25:25;;;;;;;;;;;20.50;91.40;;;;;;5108621;28;19920;-75
2023/10/26 13:27:54;;;;;;;;;;;20.80;91.10;;;;;;5108099;28;20333;-74
2023/10/26 13:30:20;;;;;;;;;;;20.80;90.90;;;;;;5108207;28;19991;-76
2023/10/26 13:32:46;;;;;;;;;;;21.00;91.10;;;;;;5108786;28;19914;-79
2023/10/26 13:35:12;;;;;;;;;;;21.20;91.00;;;;;;5089871;28;19916;-73
2023/10/26 13:37:37;;;;;;;;;;;21.20;91.00;;;;;;5108580;28;20002;-75
2023/10/26 13:40:04;;;;;;;;;;;21.30;91.10;;;;;;5090336;28;19931;-76
2023/10/26 13:42:29;;;;;;;;;;;21.40;91.10;;;;;;5108366;28;20354;-75
2023/10/26 13:44:55;;;;;;;;;;;21.40;91.10;;;;;;5107231;28;19919;-75
2023/10/26 13:47:21;;;;;;;;;;;21.20;90.90;;;;;;5107820;28;20351;-76
2023/10/26 13:49:46;;;;;;;;;;;21.10;90.90;;;;;;5089147;28;19923;-75
2023/10/26 13:52:12;;;;;;;;;;;21.00;91.00;;;;;;5081239;28;19927;-76
2023/10/26 13:54:38;;;;;;;;;;;20.80;91.00;;;;;;5108235;28;19916;-76
2023/10/26 13:57:03;;;;;;;;;;;20.70;91.10;;;;;;5110543;28;19958;-74
2023/10/26 13:59:29;;;;;;;;;;;20.60;90.70;;;;;;5113434;28;19977;-81
2023/10/26 14:01:57;;;;;;;;;;;20.40;90.40;;;;;;5114833;28;19985;-75
2023/10/26 14:04:23;;;;;;;;;;;20.10;90.20;;;;;;5085231;28;19924;-76
2023/10/26 14:06:49;;;;;;;;;;;19.90;90.20;;;;;;5091916;28;19920;-76
2023/10/26 14:09:15;;;;;;;;;;;19.70;90.10;;;;;;5091257;28;19954;-76
2023/10/26 14:11:41;;;;;;;;;;;19.50;90.20;;;;;;5092217;28;20002;-76
2023/10/26 14:14:07;;;;;;;;;;;19.40;90.40;;;;;;5095137;28;19943;-75